createdAt,value
2024-02-11T00:04:34.223Z,6.70
2024-02-11T00:09:36.598Z,3.90
2024-02-11T00:14:38.811Z,7.65
2024-02-11T00:19:41.434Z,9.05
2024-02-11T00:24:43.879Z,10.70
2024-02-11T00:29:46.240Z,5.72
2024-02-11T00:34:48.454Z,7.00
2024-02-11T00:39:50.730Z,9.18
2024-02-11T00:44:53.548Z,6.72
2024-02-11T00:49:56.895Z,8.75
2024-02-11T00:54:59.220Z,8.68
2024-02-11T01:00:01.515Z,7.00
2024-02-11T01:05:07.499Z,5.78
2024-02-11T01:10:13.970Z,6.55
2024-02-11T01:15:19.448Z,4.43
2024-02-11T01:20:22.684Z,5.93
2024-02-11T01:25:24.983Z,8.15
2024-02-11T01:30:27.312Z,6.78
2024-02-11T01:35:30.126Z,10.20
2024-02-11T01:40:34.011Z,4.40
2024-02-11T01:45:37.151Z,8.95
2024-02-11T01:50:41.808Z,9.85
2024-02-11T01:55:45.581Z,9.10
2024-02-11T02:00:49.523Z,5.57
2024-02-11T02:05:53.270Z,8.88
2024-02-11T02:10:55.845Z,8.80
2024-02-11T02:15:58.244Z,7.43
2024-02-11T02:21:00.485Z,4.55
2024-02-11T02:26:10.186Z,5.63
2024-02-11T02:31:12.521Z,7.25
2024-02-11T02:36:19.167Z,8.13
2024-02-11T02:41:22.505Z,9.57
2024-02-11T02:46:29.378Z,9.65
2024-02-11T02:51:32.405Z,7.50
2024-02-11T02:56:35.819Z,8.55
2024-02-11T03:01:39.603Z,4.53
2024-02-11T03:06:42.197Z,5.43
2024-02-11T03:11:44.538Z,9.27
2024-02-11T03:16:48.473Z,3.15
2024-02-11T03:21:54.178Z,7.68
2024-02-11T03:26:58.148Z,6.97
2024-02-11T03:32:00.604Z,4.75
2024-02-11T03:37:02.803Z,6.22
2024-02-11T03:42:06.126Z,8.13
2024-02-11T03:47:08.533Z,5.20
2024-02-11T03:52:10.946Z,6.80
2024-02-11T03:57:13.285Z,7.32
2024-02-11T04:02:15.683Z,6.65
2024-02-11T04:07:21.336Z,8.10
2024-02-11T04:12:23.828Z,5.72
2024-02-11T04:17:29.356Z,7.20
2024-02-11T04:22:31.646Z,6.97
2024-02-11T04:27:37.637Z,4.78
2024-02-11T04:32:43.733Z,8.25
2024-02-11T04:37:50.865Z,5.78
2024-02-11T04:42:54.244Z,5.93
2024-02-11T04:48:01.529Z,7.15
2024-02-11T04:53:04.409Z,9.20
2024-02-11T04:58:20.675Z,5.65
2024-02-11T05:03:25.536Z,7.80
2024-02-11T05:08:28.769Z,6.35
2024-02-11T05:13:32.185Z,4.90
2024-02-11T05:18:37.736Z,7.22
2024-02-11T05:23:41.469Z,4.72
2024-02-11T05:28:44.918Z,6.47
2024-02-11T05:33:47.219Z,2.95
2024-02-11T05:38:49.736Z,7.28
2024-02-11T05:43:52.279Z,6.95
2024-02-11T05:48:54.597Z,5.47
2024-02-11T05:53:57.028Z,5.07
2024-02-11T05:58:59.240Z,5.63
2024-02-11T06:04:01.645Z,4.28
2024-02-11T06:09:06.744Z,6.03
2024-02-11T06:14:09.174Z,4.70
2024-02-11T06:19:11.483Z,3.80
2024-02-11T06:24:14.345Z,3.65
2024-02-11T06:29:36.176Z,4.70
2024-02-11T06:34:39.513Z,6.63
2024-02-11T06:39:41.880Z,5.20
2024-02-11T06:44:44.313Z,7.65
2024-02-11T06:49:47.003Z,6.20
2024-02-11T06:54:50.483Z,6.80
2024-02-11T06:59:54.196Z,6.53
2024-02-11T07:04:57.257Z,6.25
2024-02-11T07:10:00.334Z,6.38
2024-02-11T07:15:07.493Z,5.68
2024-02-11T07:20:13.301Z,5.65
2024-02-11T07:25:18.606Z,7.45
2024-02-11T07:30:21.540Z,6.45
2024-02-11T07:35:24.975Z,6.55
2024-02-11T07:40:27.222Z,6.38
2024-02-11T07:45:29.600Z,8.10
2024-02-11T07:50:35.549Z,6.43
2024-02-11T07:55:37.995Z,7.10
2024-02-11T08:00:41.035Z,6.07
2024-02-11T08:05:43.557Z,6.82
2024-02-11T08:10:46.000Z,7.32
2024-02-11T08:15:48.369Z,7.15
2024-02-11T08:20:50.732Z,4.90
2024-02-11T08:25:53.097Z,6.35
2024-02-11T08:30:55.443Z,6.07
2024-02-11T08:35:58.059Z,6.55
2024-02-11T08:41:00.449Z,6.57
2024-02-11T08:46:05.777Z,4.15
2024-02-11T08:51:08.887Z,4.90
2024-02-11T08:56:11.570Z,6.10
2024-02-11T09:01:14.066Z,6.20
2024-02-11T09:06:16.625Z,5.47
2024-02-11T09:11:19.012Z,4.93
2024-02-11T09:16:21.330Z,6.35
2024-02-11T09:21:23.941Z,5.70
2024-02-11T09:26:26.381Z,5.15
2024-02-11T09:31:28.783Z,4.45
2024-02-11T09:36:31.101Z,5.47
2024-02-11T09:41:34.408Z,5.47
2024-02-11T09:46:38.749Z,5.00
2024-02-11T09:51:43.040Z,5.88
2024-02-11T09:56:45.953Z,6.00
2024-02-11T10:01:50.055Z,5.80
2024-02-11T10:06:54.259Z,5.28
2024-02-11T10:11:57.382Z,5.60
2024-02-11T10:17:01.089Z,5.28
2024-02-11T10:22:14.679Z,5.65
2024-02-11T10:27:25.783Z,6.28
2024-02-11T10:32:32.360Z,5.03
2024-02-11T10:37:52.518Z,5.65
2024-02-11T10:42:57.513Z,6.30
2024-02-11T10:48:00.070Z,5.07
2024-02-11T10:53:06.404Z,5.95
2024-02-11T10:58:09.724Z,5.15
2024-02-11T11:03:16.263Z,4.93
2024-02-11T11:08:20.802Z,4.60
2024-02-11T11:13:26.349Z,5.05
2024-02-11T11:18:28.751Z,4.60
2024-02-11T11:23:31.976Z,4.45
2024-02-11T11:28:34.288Z,4.53
2024-02-11T11:33:37.204Z,3.92
2024-02-11T11:38:39.927Z,4.40
2024-02-11T11:43:42.611Z,3.78
2024-02-11T11:48:45.067Z,3.67
2024-02-11T11:53:48.369Z,4.70
2024-02-11T11:58:53.846Z,4.57
2024-02-11T12:03:56.115Z,4.63
2024-02-11T12:08:58.528Z,4.60
2024-02-11T12:14:01.639Z,5.65
2024-02-11T12:19:03.970Z,4.75
2024-02-11T12:24:06.618Z,4.00
2024-02-11T12:29:08.860Z,4.88
2024-02-11T12:34:11.222Z,4.35
2024-02-11T12:39:14.485Z,4.50
2024-02-11T12:44:16.827Z,4.13
2024-02-11T12:49:19.188Z,4.75
2024-02-11T12:54:21.467Z,4.70
2024-02-11T12:59:25.196Z,5.10
2024-02-11T13:04:27.720Z,3.55
2024-02-11T13:09:48.435Z,3.65
2024-02-11T13:14:50.769Z,3.27
2024-02-11T13:19:53.971Z,2.78
2024-02-11T13:24:56.229Z,3.83
2024-02-11T13:29:58.489Z,4.82
2024-02-11T13:35:01.722Z,4.63
2024-02-11T13:40:13.389Z,3.05
2024-02-11T13:45:16.341Z,4.32
2024-02-11T13:50:18.637Z,3.80
2024-02-11T13:55:20.928Z,4.18
2024-02-11T14:00:23.553Z,4.05
2024-02-11T14:05:26.033Z,3.60
2024-02-11T14:10:28.405Z,4.40
2024-02-11T14:15:30.846Z,3.85
2024-02-11T14:20:51.782Z,3.78
2024-02-11T14:25:54.099Z,4.50
2024-02-11T14:30:58.122Z,4.75
2024-02-11T14:36:01.059Z,4.82
2024-02-11T14:41:04.480Z,2.22
2024-02-11T14:46:07.786Z,5.32
2024-02-11T14:51:10.065Z,4.30
2024-02-11T14:56:12.472Z,4.13
2024-02-11T15:01:16.155Z,4.30
2024-02-11T15:06:19.015Z,4.32
2024-02-11T15:11:23.379Z,5.15
2024-02-11T15:16:25.729Z,3.70
2024-02-11T15:21:27.970Z,5.53
2024-02-11T15:26:30.520Z,5.57
2024-02-11T15:31:32.909Z,4.03
2024-02-11T15:36:35.530Z,5.68
2024-02-11T15:41:37.833Z,1.95
2024-02-11T15:46:40.382Z,4.82
2024-02-11T15:51:47.004Z,5.20
2024-02-11T15:56:50.288Z,4.88
2024-02-11T16:01:52.766Z,2.95
2024-02-11T16:06:55.663Z,5.20
2024-02-11T16:11:59.586Z,3.92
2024-02-11T16:17:01.848Z,5.65
2024-02-11T16:22:04.276Z,5.30
2024-02-11T16:27:25.337Z,5.03
2024-02-11T16:32:27.789Z,5.40
2024-02-11T16:37:30.094Z,5.30
2024-02-11T16:42:32.383Z,6.25
2024-02-11T16:47:34.803Z,4.38
2024-02-11T16:52:37.710Z,2.13
2024-02-11T16:57:40.217Z,4.65
2024-02-11T17:02:44.620Z,3.85
2024-02-11T17:07:50.158Z,5.00
2024-02-11T17:12:52.625Z,6.18
2024-02-11T17:17:55.299Z,6.32
2024-02-11T17:22:57.808Z,5.25
2024-02-11T17:28:00.935Z,7.53
2024-02-11T17:33:03.482Z,3.88
2024-02-11T17:38:07.456Z,6.05
2024-02-11T17:43:11.035Z,6.93
2024-02-11T17:48:13.609Z,7.47
2024-02-11T17:53:16.407Z,5.63
2024-02-11T17:58:18.759Z,4.80
2024-02-11T18:03:22.451Z,4.57
2024-02-11T18:08:24.886Z,6.30
2024-02-11T18:13:27.346Z,5.88
2024-02-11T18:18:34.512Z,8.05
2024-02-11T18:23:37.444Z,4.43
2024-02-11T18:28:43.825Z,7.15
2024-02-11T18:33:46.517Z,7.32
2024-02-11T18:38:49.015Z,7.93
2024-02-11T18:43:51.327Z,7.75
2024-02-11T18:48:53.575Z,9.02
2024-02-11T18:53:55.780Z,7.32
2024-02-11T18:58:58.132Z,7.05
2024-02-11T19:04:00.420Z,7.47
2024-02-11T19:09:08.148Z,7.18
2024-02-11T19:14:10.580Z,7.78
2024-02-11T19:19:15.768Z,7.45
2024-02-11T19:24:18.110Z,7.95
2024-02-11T19:29:21.966Z,5.70
2024-02-11T19:34:24.274Z,6.05
2024-02-11T19:39:27.565Z,8.52
2024-02-11T19:44:32.158Z,8.50
2024-02-11T19:49:36.051Z,7.85
2024-02-11T19:54:38.443Z,6.75
2024-02-11T19:59:40.996Z,8.20
2024-02-11T20:04:43.441Z,7.25
2024-02-11T20:09:45.739Z,5.18
2024-02-11T20:14:48.014Z,9.07
2024-02-11T20:19:52.565Z,8.50
2024-02-11T20:25:13.441Z,7.85
2024-02-11T20:30:15.949Z,9.27
2024-02-11T20:35:19.837Z,8.32
2024-02-11T20:40:22.171Z,8.38
2024-02-11T20:45:25.260Z,8.95
2024-02-11T20:50:28.785Z,7.88
2024-02-11T20:55:30.982Z,9.02
2024-02-11T21:00:36.698Z,9.98
2024-02-11T21:05:39.169Z,8.73
2024-02-11T21:10:46.026Z,8.85
2024-02-11T21:16:08.599Z,9.68
2024-02-11T21:21:11.500Z,8.82
2024-02-11T21:26:18.493Z,8.95
2024-02-11T21:31:23.216Z,9.02
2024-02-11T21:36:26.742Z,9.75
2024-02-11T21:41:29.142Z,9.02
2024-02-11T21:46:31.913Z,9.02
2024-02-11T21:51:36.241Z,8.57
2024-02-11T21:56:38.926Z,7.18
2024-02-11T22:01:41.362Z,9.75
2024-02-11T22:06:43.944Z,10.15
2024-02-11T22:11:46.412Z,5.93
2024-02-11T22:16:49.842Z,8.68
2024-02-11T22:21:52.200Z,9.13
2024-02-11T22:26:57.827Z,9.57
2024-02-11T22:32:00.195Z,8.93
2024-02-11T22:37:02.650Z,8.57
2024-02-11T22:42:06.333Z,8.23
2024-02-11T22:47:08.795Z,8.52
2024-02-11T22:52:14.425Z,10.40
2024-02-11T22:57:17.113Z,8.02
2024-02-11T23:02:20.112Z,9.98
2024-02-11T23:07:22.312Z,8.63
2024-02-11T23:12:24.570Z,8.05
2024-02-11T23:17:27.577Z,8.77
2024-02-11T23:22:34.476Z,9.10
2024-02-11T23:27:38.756Z,9.10
2024-02-11T23:32:44.353Z,9.32
2024-02-11T23:37:46.560Z,9.85
2024-02-11T23:42:48.888Z,9.85
2024-02-11T23:47:51.121Z,9.63
2024-02-11T23:52:54.052Z,9.50
2024-02-11T23:57:56.439Z,9.43
